sensor_id;sensor_type;location;lat;lon;timestamp;P1;durP1;ratioP1;P2;durP2;ratioP2
13801;SDS011;6972;51.518;6.918;2023-05-07T00:01:48;1.17;;;1.05;;
13801;SDS011;6972;51.518;6.918;2023-05-07T00:04:14;0.82;;;0.82;;
13801;SDS011;6972;51.518;6.918;2023-05-07T00:06:40;0.80;;;0.80;;
13801;SDS011;6972;51.518;6.918;2023-05-07T00:09:06;1.13;;;0.90;;
13801;SDS011;6972;51.518;6.918;2023-05-07T00:11:33;1.00;;;0.80;;
13801;SDS011;6972;51.518;6.918;2023-05-07T00:13:59;0.80;;;0.80;;
13801;SDS011;6972;51.518;6.918;2023-05-07T00:16:25;0.88;;;0.88;;
13801;SDS011;6972;51.518;6.918;2023-05-07T00:18:51;0.80;;;0.80;;
13801;SDS011;6972;51.518;6.918;2023-05-07T00:21:17;1.05;;;0.85;;
13801;SDS011;6972;51.518;6.918;2023-05-07T00:23:43;2.50;;;1.00;;
13801;SDS011;6972;51.518;6.918;2023-05-07T00:26:09;1.15;;;1.00;;
13801;SDS011;6972;51.518;6.918;2023-05-07T00:28:35;1.20;;;1.10;;
13801;SDS011;6972;51.518;6.918;2023-05-07T00:31:01;1.20;;;1.00;;
13801;SDS011;6972;51.518;6.918;2023-05-07T00:33:27;1.25;;;1.02;;
13801;SDS011;6972;51.518;6.918;2023-05-07T00:35:53;1.15;;;1.00;;
13801;SDS011;6972;51.518;6.918;2023-05-07T00:38:20;1.17;;;1.00;;
13801;SDS011;6972;51.518;6.918;2023-05-07T00:40:46;2.25;;;0.90;;
13801;SDS011;6972;51.518;6.918;2023-05-07T00:43:12;0.82;;;0.80;;
13801;SDS011;6972;51.518;6.918;2023-05-07T00:45:38;1.75;;;1.08;;
13801;SDS011;6972;51.518;6.918;2023-05-07T00:48:04;1.10;;;1.00;;
13801;SDS011;6972;51.518;6.918;2023-05-07T00:50:30;1.50;;;1.15;;
13801;SDS011;6972;51.518;6.918;2023-05-07T00:52:56;1.58;;;1.13;;
13801;SDS011;6972;51.518;6.918;2023-05-07T00:55:23;1.20;;;0.93;;
13801;SDS011;6972;51.518;6.918;2023-05-07T00:57:50;0.85;;;0.85;;
13801;SDS011;6972;51.518;6.918;2023-05-07T01:00:16;1.38;;;0.95;;
13801;SDS011;6972;51.518;6.918;2023-05-07T01:02:43;0.85;;;0.80;;
13801;SDS011;6972;51.518;6.918;2023-05-07T01:05:10;1.05;;;0.95;;
13801;SDS011;6972;51.518;6.918;2023-05-07T01:07:39;1.10;;;0.88;;
13801;SDS011;6972;51.518;6.918;2023-05-07T01:10:07;1.10;;;0.90;;
13801;SDS011;6972;51.518;6.918;2023-05-07T01:12:34;1.27;;;0.80;;
13801;SDS011;6972;51.518;6.918;2023-05-07T01:15:02;1.65;;;0.90;;
13801;SDS011;6972;51.518;6.918;2023-05-07T01:17:29;0.85;;;0.80;;
13801;SDS011;6972;51.518;6.918;2023-05-07T01:19:55;1.23;;;0.90;;
13801;SDS011;6972;51.518;6.918;2023-05-07T01:22:39;0.77;;;0.77;;
13801;SDS011;6972;51.518;6.918;2023-05-07T01:25:06;0.82;;;0.80;;
13801;SDS011;6972;51.518;6.918;2023-05-07T01:27:33;0.80;;;0.80;;
13801;SDS011;6972;51.518;6.918;2023-05-07T01:30:00;1.20;;;0.90;;
13801;SDS011;6972;51.518;6.918;2023-05-07T01:32:33;0.70;;;0.70;;
13801;SDS011;6972;51.518;6.918;2023-05-07T01:35:13;0.80;;;0.80;;
13801;SDS011;6972;51.518;6.918;2023-05-07T01:37:43;1.05;;;0.90;;
13801;SDS011;6972;51.518;6.918;2023-05-07T01:40:10;0.88;;;0.88;;
13801;SDS011;6972;51.518;6.918;2023-05-07T01:42:35;1.10;;;1.00;;
13801;SDS011;6972;51.518;6.918;2023-05-07T01:45:02;0.93;;;0.90;;
13801;SDS011;6972;51.518;6.918;2023-05-07T01:47:28;1.02;;;0.90;;
13801;SDS011;6972;51.518;6.918;2023-05-07T01:49:54;1.23;;;0.90;;
13801;SDS011;6972;51.518;6.918;2023-05-07T01:52:20;1.00;;;0.90;;
13801;SDS011;6972;51.518;6.918;2023-05-07T01:54:46;0.90;;;0.80;;
13801;SDS011;6972;51.518;6.918;2023-05-07T01:57:12;1.05;;;0.95;;
13801;SDS011;6972;51.518;6.918;2023-05-07T01:59:38;0.90;;;0.90;;
13801;SDS011;6972;51.518;6.918;2023-05-07T02:02:04;0.80;;;0.80;;
13801;SDS011;6972;51.518;6.918;2023-05-07T02:04:30;1.00;;;0.90;;
13801;SDS011;6972;51.518;6.918;2023-05-07T02:06:56;0.80;;;0.80;;
13801;SDS011;6972;51.518;6.918;2023-05-07T02:09:22;0.98;;;0.90;;
13801;SDS011;6972;51.518;6.918;2023-05-07T02:11:48;0.80;;;0.80;;
13801;SDS011;6972;51.518;6.918;2023-05-07T02:14:14;0.93;;;0.85;;
13801;SDS011;6972;51.518;6.918;2023-05-07T02:16:41;1.17;;;0.88;;
13801;SDS011;6972;51.518;6.918;2023-05-07T02:19:07;0.75;;;0.75;;
13801;SDS011;6972;51.518;6.918;2023-05-07T02:21:33;0.90;;;0.80;;
13801;SDS011;6972;51.518;6.918;2023-05-07T02:23:59;1.00;;;0.90;;
13801;SDS011;6972;51.518;6.918;2023-05-07T02:26:25;1.00;;;0.90;;
13801;SDS011;6972;51.518;6.918;2023-05-07T02:28:51;0.95;;;0.90;;
13801;SDS011;6972;51.518;6.918;2023-05-07T02:31:17;1.40;;;0.98;;
13801;SDS011;6972;51.518;6.918;2023-05-07T02:33:43;1.10;;;1.00;;
13801;SDS011;6972;51.518;6.918;2023-05-07T02:36:10;1.02;;;0.93;;
13801;SDS011;6972;51.518;6.918;2023-05-07T02:38:37;1.02;;;0.90;;
13801;SDS011;6972;51.518;6.918;2023-05-07T02:41:03;0.70;;;0.70;;
13801;SDS011;6972;51.518;6.918;2023-05-07T02:43:29;0.95;;;0.90;;
13801;SDS011;6972;51.518;6.918;2023-05-07T02:46:04;0.80;;;0.80;;
13801;SDS011;6972;51.518;6.918;2023-05-07T02:48:31;0.70;;;0.70;;
13801;SDS011;6972;51.518;6.918;2023-05-07T02:50:58;0.80;;;0.80;;
13801;SDS011;6972;51.518;6.918;2023-05-07T02:53:24;1.17;;;1.00;;
13801;SDS011;6972;51.518;6.918;2023-05-07T02:55:55;0.82;;;0.82;;
13801;SDS011;6972;51.518;6.918;2023-05-07T02:58:21;1.25;;;1.10;;
13801;SDS011;6972;51.518;6.918;2023-05-07T03:00:47;1.25;;;0.88;;
13801;SDS011;6972;51.518;6.918;2023-05-07T03:03:14;0.85;;;0.80;;
13801;SDS011;6972;51.518;6.918;2023-05-07T03:05:40;0.85;;;0.85;;
13801;SDS011;6972;51.518;6.918;2023-05-07T03:08:06;0.80;;;0.80;;
13801;SDS011;6972;51.518;6.918;2023-05-07T03:10:33;1.25;;;1.10;;
13801;SDS011;6972;51.518;6.918;2023-05-07T03:13:00;1.10;;;1.00;;
13801;SDS011;6972;51.518;6.918;2023-05-07T03:15:26;1.23;;;1.00;;
13801;SDS011;6972;51.518;6.918;2023-05-07T03:17:52;0.77;;;0.77;;
13801;SDS011;6972;51.518;6.918;2023-05-07T03:20:18;0.70;;;0.70;;
13801;SDS011;6972;51.518;6.918;2023-05-07T03:22:44;0.80;;;0.80;;
13801;SDS011;6972;51.518;6.918;2023-05-07T03:25:10;1.08;;;0.98;;
13801;SDS011;6972;51.518;6.918;2023-05-07T03:27:36;0.80;;;0.80;;
13801;SDS011;6972;51.518;6.918;2023-05-07T03:30:03;0.98;;;0.93;;
13801;SDS011;6972;51.518;6.918;2023-05-07T03:32:30;0.90;;;0.90;;
13801;SDS011;6972;51.518;6.918;2023-05-07T03:34:56;0.98;;;0.88;;
13801;SDS011;6972;51.518;6.918;2023-05-07T03:37:22;0.80;;;0.80;;
13801;SDS011;6972;51.518;6.918;2023-05-07T03:39:48;1.00;;;0.90;;
13801;SDS011;6972;51.518;6.918;2023-05-07T03:42:14;1.35;;;1.00;;
13801;SDS011;6972;51.518;6.918;2023-05-07T03:44:40;0.80;;;0.80;;
13801;SDS011;6972;51.518;6.918;2023-05-07T03:47:06;0.90;;;0.90;;
13801;SDS011;6972;51.518;6.918;2023-05-07T03:49:32;0.80;;;0.80;;
13801;SDS011;6972;51.518;6.918;2023-05-07T03:51:58;1.08;;;0.98;;
13801;SDS011;6972;51.518;6.918;2023-05-07T03:54:24;0.90;;;0.90;;
13801;SDS011;6972;51.518;6.918;2023-05-07T03:56:50;0.80;;;0.80;;
13801;SDS011;6972;51.518;6.918;2023-05-07T03:59:16;0.82;;;0.82;;
13801;SDS011;6972;51.518;6.918;2023-05-07T04:01:42;1.08;;;0.90;;
13801;SDS011;6972;51.518;6.918;2023-05-07T04:04:08;1.45;;;1.00;;
13801;SDS011;6972;51.518;6.918;2023-05-07T04:06:34;0.82;;;0.80;;
13801;SDS011;6972;51.518;6.918;2023-05-07T04:09:00;1.20;;;1.00;;
13801;SDS011;6972;51.518;6.918;2023-05-07T04:11:26;1.10;;;1.00;;
13801;SDS011;6972;51.518;6.918;2023-05-07T04:13:52;1.02;;;0.80;;
13801;SDS011;6972;51.518;6.918;2023-05-07T04:16:18;1.00;;;0.90;;
13801;SDS011;6972;51.518;6.918;2023-05-07T04:18:44;1.10;;;0.98;;
13801;SDS011;6972;51.518;6.918;2023-05-07T04:21:14;1.20;;;1.10;;
13801;SDS011;6972;51.518;6.918;2023-05-07T04:23:40;0.80;;;0.80;;
13801;SDS011;6972;51.518;6.918;2023-05-07T04:26:06;1.30;;;0.82;;
13801;SDS011;6972;51.518;6.918;2023-05-07T04:28:33;0.98;;;0.88;;
13801;SDS011;6972;51.518;6.918;2023-05-07T04:30:59;0.80;;;0.80;;
13801;SDS011;6972;51.518;6.918;2023-05-07T04:33:25;1.17;;;1.08;;
13801;SDS011;6972;51.518;6.918;2023-05-07T04:35:51;0.80;;;0.80;;
13801;SDS011;6972;51.518;6.918;2023-05-07T04:38:21;1.33;;;0.90;;
13801;SDS011;6972;51.518;6.918;2023-05-07T04:40:48;1.00;;;0.80;;
13801;SDS011;6972;51.518;6.918;2023-05-07T04:43:14;1.10;;;1.00;;
13801;SDS011;6972;51.518;6.918;2023-05-07T04:45:41;0.80;;;0.80;;
13801;SDS011;6972;51.518;6.918;2023-05-07T04:48:08;1.52;;;1.10;;
13801;SDS011;6972;51.518;6.918;2023-05-07T04:50:35;1.20;;;1.05;;
13801;SDS011;6972;51.518;6.918;2023-05-07T04:53:01;0.82;;;0.82;;
13801;SDS011;6972;51.518;6.918;2023-05-07T04:55:31;0.90;;;0.90;;
13801;SDS011;6972;51.518;6.918;2023-05-07T04:57:59;1.10;;;1.00;;
13801;SDS011;6972;51.518;6.918;2023-05-07T05:00:26;1.15;;;1.05;;
13801;SDS011;6972;51.518;6.918;2023-05-07T05:02:53;1.10;;;1.00;;
13801;SDS011;6972;51.518;6.918;2023-05-07T05:05:19;1.00;;;0.90;;
13801;SDS011;6972;51.518;6.918;2023-05-07T05:07:45;1.40;;;1.05;;
13801;SDS011;6972;51.518;6.918;2023-05-07T05:10:11;1.00;;;0.90;;
13801;SDS011;6972;51.518;6.918;2023-05-07T05:12:37;1.00;;;0.90;;
13801;SDS011;6972;51.518;6.918;2023-05-07T05:15:04;1.52;;;1.13;;
13801;SDS011;6972;51.518;6.918;2023-05-07T05:17:30;1.10;;;1.00;;
13801;SDS011;6972;51.518;6.918;2023-05-07T05:19:56;1.15;;;1.05;;
13801;SDS011;6972;51.518;6.918;2023-05-07T05:22:22;1.15;;;1.00;;
13801;SDS011;6972;51.518;6.918;2023-05-07T05:24:49;1.45;;;1.15;;
13801;SDS011;6972;51.518;6.918;2023-05-07T05:27:15;1.25;;;1.00;;
13801;SDS011;6972;51.518;6.918;2023-05-07T05:29:41;1.17;;;0.98;;
13801;SDS011;6972;51.518;6.918;2023-05-07T05:32:07;1.55;;;1.30;;
13801;SDS011;6972;51.518;6.918;2023-05-07T05:34:33;1.20;;;1.10;;
13801;SDS011;6972;51.518;6.918;2023-05-07T05:36:59;1.17;;;1.08;;
13801;SDS011;6972;51.518;6.918;2023-05-07T05:39:29;1.30;;;1.15;;
13801;SDS011;6972;51.518;6.918;2023-05-07T05:41:59;1.48;;;1.13;;
13801;SDS011;6972;51.518;6.918;2023-05-07T05:44:27;1.20;;;1.10;;
13801;SDS011;6972;51.518;6.918;2023-05-07T05:46:53;1.58;;;1.38;;
13801;SDS011;6972;51.518;6.918;2023-05-07T05:49:21;1.20;;;1.08;;
13801;SDS011;6972;51.518;6.918;2023-05-07T05:51:51;1.40;;;1.30;;
13801;SDS011;6972;51.518;6.918;2023-05-07T05:54:17;1.20;;;1.10;;
13801;SDS011;6972;51.518;6.918;2023-05-07T05:56:43;1.17;;;1.08;;
13801;SDS011;6972;51.518;6.918;2023-05-07T05:59:09;1.30;;;1.20;;
13801;SDS011;6972;51.518;6.918;2023-05-07T06:01:44;2.28;;;1.20;;
13801;SDS011;6972;51.518;6.918;2023-05-07T06:04:10;1.30;;;1.20;;
13801;SDS011;6972;51.518;6.918;2023-05-07T06:06:38;1.63;;;1.10;;
13801;SDS011;6972;51.518;6.918;2023-05-07T06:09:10;1.10;;;1.00;;
13801;SDS011;6972;51.518;6.918;2023-05-07T06:11:36;1.50;;;1.00;;
13801;SDS011;6972;51.518;6.918;2023-05-07T06:14:02;1.70;;;1.10;;
13801;SDS011;6972;51.518;6.918;2023-05-07T06:16:28;1.08;;;0.98;;
13801;SDS011;6972;51.518;6.918;2023-05-07T06:18:54;1.10;;;1.00;;
13801;SDS011;6972;51.518;6.918;2023-05-07T06:21:24;1.65;;;1.13;;
13801;SDS011;6972;51.518;6.918;2023-05-07T06:23:54;2.20;;;1.17;;
13801;SDS011;6972;51.518;6.918;2023-05-07T06:26:20;1.60;;;1.23;;
13801;SDS011;6972;51.518;6.918;2023-05-07T06:28:46;1.90;;;1.23;;
13801;SDS011;6972;51.518;6.918;2023-05-07T06:33:38;1.55;;;1.08;;
13801;SDS011;6972;51.518;6.918;2023-05-07T06:36:05;1.45;;;1.30;;
13801;SDS011;6972;51.518;6.918;2023-05-07T06:38:31;1.40;;;1.30;;
13801;SDS011;6972;51.518;6.918;2023-05-07T06:40:57;1.30;;;1.10;;
13801;SDS011;6972;51.518;6.918;2023-05-07T06:43:23;1.45;;;1.20;;
13801;SDS011;6972;51.518;6.918;2023-05-07T06:45:49;1.45;;;1.10;;
13801;SDS011;6972;51.518;6.918;2023-05-07T06:48:16;1.15;;;1.00;;
13801;SDS011;6972;51.518;6.918;2023-05-07T06:50:42;1.38;;;1.10;;
13801;SDS011;6972;51.518;6.918;2023-05-07T06:53:08;1.50;;;1.10;;
13801;SDS011;6972;51.518;6.918;2023-05-07T06:55:34;1.48;;;1.30;;
13801;SDS011;6972;51.518;6.918;2023-05-07T06:58:00;1.45;;;1.27;;
13801;SDS011;6972;51.518;6.918;2023-05-07T07:00:26;1.45;;;1.17;;
13801;SDS011;6972;51.518;6.918;2023-05-07T07:02:53;1.50;;;1.20;;
13801;SDS011;6972;51.518;6.918;2023-05-07T07:05:19;1.40;;;1.25;;
13801;SDS011;6972;51.518;6.918;2023-05-07T07:07:46;1.48;;;1.27;;
13801;SDS011;6972;51.518;6.918;2023-05-07T07:10:18;1.50;;;1.30;;
13801;SDS011;6972;51.518;6.918;2023-05-07T07:12:44;1.30;;;1.20;;
13801;SDS011;6972;51.518;6.918;2023-05-07T07:15:10;3.60;;;1.20;;
13801;SDS011;6972;51.518;6.918;2023-05-07T07:17:36;1.92;;;1.20;;
13801;SDS011;6972;51.518;6.918;2023-05-07T07:20:02;1.58;;;1.10;;
13801;SDS011;6972;51.518;6.918;2023-05-07T07:22:29;1.90;;;1.20;;
13801;SDS011;6972;51.518;6.918;2023-05-07T07:24:54;1.30;;;1.10;;
13801;SDS011;6972;51.518;6.918;2023-05-07T07:27:20;1.20;;;1.10;;
13801;SDS011;6972;51.518;6.918;2023-05-07T07:29:46;1.38;;;1.05;;
13801;SDS011;6972;51.518;6.918;2023-05-07T07:32:12;1.33;;;1.20;;
13801;SDS011;6972;51.518;6.918;2023-05-07T07:34:38;1.17;;;1.00;;
13801;SDS011;6972;51.518;6.918;2023-05-07T07:37:04;2.03;;;1.10;;
13801;SDS011;6972;51.518;6.918;2023-05-07T07:39:34;4.60;;;2.35;;
13801;SDS011;6972;51.518;6.918;2023-05-07T07:42:02;5.35;;;2.67;;
13801;SDS011;6972;51.518;6.918;2023-05-07T07:44:28;3.70;;;2.40;;
13801;SDS011;6972;51.518;6.918;2023-05-07T07:46:54;2.92;;;2.38;;
13801;SDS011;6972;51.518;6.918;2023-05-07T07:49:20;3.35;;;2.17;;
13801;SDS011;6972;51.518;6.918;2023-05-07T07:51:46;3.50;;;2.70;;
13801;SDS011;6972;51.518;6.918;2023-05-07T07:54:12;3.42;;;2.80;;
13801;SDS011;6972;51.518;6.918;2023-05-07T07:56:38;3.92;;;2.60;;
13801;SDS011;6972;51.518;6.918;2023-05-07T07:59:04;3.30;;;2.15;;
13801;SDS011;6972;51.518;6.918;2023-05-07T08:01:30;3.35;;;2.60;;
13801;SDS011;6972;51.518;6.918;2023-05-07T08:03:56;3.63;;;2.35;;
13801;SDS011;6972;51.518;6.918;2023-05-07T08:06:33;2.08;;;1.88;;
13801;SDS011;6972;51.518;6.918;2023-05-07T08:08:58;3.97;;;2.30;;
13801;SDS011;6972;51.518;6.918;2023-05-07T08:11:25;1.90;;;1.60;;
13801;SDS011;6972;51.518;6.918;2023-05-07T08:13:51;3.20;;;2.05;;
13801;SDS011;6972;51.518;6.918;2023-05-07T08:16:17;4.93;;;2.28;;
13801;SDS011;6972;51.518;6.918;2023-05-07T08:18:43;4.57;;;3.03;;
13801;SDS011;6972;51.518;6.918;2023-05-07T08:21:09;2.45;;;1.95;;
13801;SDS011;6972;51.518;6.918;2023-05-07T08:23:35;6.25;;;2.63;;
13801;SDS011;6972;51.518;6.918;2023-05-07T08:26:01;6.88;;;3.22;;
13801;SDS011;6972;51.518;6.918;2023-05-07T08:28:27;3.53;;;2.60;;
13801;SDS011;6972;51.518;6.918;2023-05-07T08:30:54;4.15;;;2.97;;
13801;SDS011;6972;51.518;6.918;2023-05-07T08:33:21;4.72;;;3.00;;
13801;SDS011;6972;51.518;6.918;2023-05-07T08:35:47;3.85;;;2.60;;
13801;SDS011;6972;51.518;6.918;2023-05-07T08:38:14;4.40;;;2.60;;
13801;SDS011;6972;51.518;6.918;2023-05-07T08:40:40;3.70;;;2.20;;
13801;SDS011;6972;51.518;6.918;2023-05-07T08:43:06;4.20;;;2.00;;
13801;SDS011;6972;51.518;6.918;2023-05-07T08:45:33;3.63;;;2.78;;
13801;SDS011;6972;51.518;6.918;2023-05-07T08:48:00;5.13;;;2.90;;
13801;SDS011;6972;51.518;6.918;2023-05-07T08:50:28;3.78;;;2.65;;
13801;SDS011;6972;51.518;6.918;2023-05-07T08:52:54;3.30;;;2.30;;
13801;SDS011;6972;51.518;6.918;2023-05-07T08:55:22;4.93;;;2.97;;
13801;SDS011;6972;51.518;6.918;2023-05-07T08:57:50;4.82;;;3.13;;
13801;SDS011;6972;51.518;6.918;2023-05-07T09:00:17;3.35;;;1.88;;
13801;SDS011;6972;51.518;6.918;2023-05-07T09:02:44;4.88;;;2.30;;
13801;SDS011;6972;51.518;6.918;2023-05-07T09:05:10;5.03;;;2.65;;
13801;SDS011;6972;51.518;6.918;2023-05-07T09:07:39;2.55;;;1.80;;
13801;SDS011;6972;51.518;6.918;2023-05-07T09:10:05;3.35;;;2.45;;
13801;SDS011;6972;51.518;6.918;2023-05-07T09:12:32;2.55;;;2.10;;
13801;SDS011;6972;51.518;6.918;2023-05-07T09:15:00;2.42;;;1.90;;
13801;SDS011;6972;51.518;6.918;2023-05-07T09:17:27;3.80;;;2.40;;
13801;SDS011;6972;51.518;6.918;2023-05-07T09:19:53;3.25;;;2.35;;
13801;SDS011;6972;51.518;6.918;2023-05-07T09:22:19;3.25;;;2.70;;
13801;SDS011;6972;51.518;6.918;2023-05-07T09:24:49;2.83;;;1.85;;
13801;SDS011;6972;51.518;6.918;2023-05-07T09:27:15;2.50;;;2.03;;
13801;SDS011;6972;51.518;6.918;2023-05-07T09:29:43;3.20;;;1.95;;
13801;SDS011;6972;51.518;6.918;2023-05-07T09:32:09;3.83;;;3.17;;
13801;SDS011;6972;51.518;6.918;2023-05-07T09:34:35;3.13;;;2.60;;
13801;SDS011;6972;51.518;6.918;2023-05-07T09:37:02;2.58;;;2.22;;
13801;SDS011;6972;51.518;6.918;2023-05-07T09:42:07;3.72;;;2.97;;
13801;SDS011;6972;51.518;6.918;2023-05-07T09:44:34;5.25;;;3.28;;
13801;SDS011;6972;51.518;6.918;2023-05-07T09:47:00;7.15;;;3.28;;
13801;SDS011;6972;51.518;6.918;2023-05-07T09:49:29;6.18;;;4.00;;
13801;SDS011;6972;51.518;6.918;2023-05-07T09:51:56;5.72;;;3.97;;
13801;SDS011;6972;51.518;6.918;2023-05-07T09:54:22;3.88;;;3.08;;
13801;SDS011;6972;51.518;6.918;2023-05-07T09:56:48;6.20;;;3.22;;
13801;SDS011;6972;51.518;6.918;2023-05-07T09:59:15;4.78;;;3.65;;
13801;SDS011;6972;51.518;6.918;2023-05-07T10:01:42;3.90;;;3.10;;
13801;SDS011;6972;51.518;6.918;2023-05-07T10:04:10;3.25;;;2.42;;
13801;SDS011;6972;51.518;6.918;2023-05-07T10:06:36;3.10;;;2.50;;
13801;SDS011;6972;51.518;6.918;2023-05-07T10:09:03;4.32;;;2.50;;
13801;SDS011;6972;51.518;6.918;2023-05-07T10:11:33;3.08;;;2.50;;
13801;SDS011;6972;51.518;6.918;2023-05-07T10:14:00;4.13;;;2.72;;
13801;SDS011;6972;51.518;6.918;2023-05-07T10:16:31;3.60;;;2.47;;
13801;SDS011;6972;51.518;6.918;2023-05-07T10:19:01;4.03;;;2.70;;
13801;SDS011;6972;51.518;6.918;2023-05-07T10:21:33;5.45;;;2.45;;
13801;SDS011;6972;51.518;6.918;2023-05-07T10:26:35;2.78;;;2.08;;
13801;SDS011;6972;51.518;6.918;2023-05-07T10:29:12;4.20;;;3.08;;
13801;SDS011;6972;51.518;6.918;2023-05-07T10:32:19;2.50;;;2.08;;
13801;SDS011;6972;51.518;6.918;2023-05-07T10:34:56;4.03;;;2.95;;
13801;SDS011;6972;51.518;6.918;2023-05-07T10:37:23;3.20;;;2.60;;
13801;SDS011;6972;51.518;6.918;2023-05-07T10:39:52;3.92;;;2.83;;
13801;SDS011;6972;51.518;6.918;2023-05-07T10:42:18;3.03;;;2.30;;
13801;SDS011;6972;51.518;6.918;2023-05-07T10:44:44;6.03;;;2.90;;
13801;SDS011;6972;51.518;6.918;2023-05-07T10:47:11;2.95;;;1.98;;
13801;SDS011;6972;51.518;6.918;2023-05-07T10:52:11;2.70;;;2.15;;
13801;SDS011;6972;51.518;6.918;2023-05-07T10:54:37;3.20;;;2.30;;
13801;SDS011;6972;51.518;6.918;2023-05-07T10:58:04;3.75;;;2.67;;
13801;SDS011;6972;51.518;6.918;2023-05-07T11:00:04;3.75;;;2.38;;
13801;SDS011;6972;51.518;6.918;2023-05-07T11:05:29;6.25;;;3.30;;
13801;SDS011;6972;51.518;6.918;2023-05-07T11:10:22;4.18;;;2.53;;
13801;SDS011;6972;51.518;6.918;2023-05-07T11:15:14;3.88;;;2.45;;
13801;SDS011;6972;51.518;6.918;2023-05-07T11:17:58;3.03;;;2.40;;
13801;SDS011;6972;51.518;6.918;2023-05-07T11:23:54;2.40;;;2.10;;
13801;SDS011;6972;51.518;6.918;2023-05-07T11:28:38;4.78;;;2.00;;
13801;SDS011;6972;51.518;6.918;2023-05-07T11:31:05;4.80;;;2.15;;
13801;SDS011;6972;51.518;6.918;2023-05-07T11:33:31;2.67;;;1.90;;
13801;SDS011;6972;51.518;6.918;2023-05-07T11:35:57;2.65;;;1.30;;
13801;SDS011;6972;51.518;6.918;2023-05-07T11:38:25;3.55;;;1.65;;
13801;SDS011;6972;51.518;6.918;2023-05-07T11:40:53;3.30;;;2.40;;
13801;SDS011;6972;51.518;6.918;2023-05-07T11:43:27;1.80;;;1.45;;
13801;SDS011;6972;51.518;6.918;2023-05-07T11:45:53;2.35;;;1.30;;
13801;SDS011;6972;51.518;6.918;2023-05-07T11:48:20;1.55;;;1.38;;
13801;SDS011;6972;51.518;6.918;2023-05-07T11:50:54;2.03;;;1.35;;
13801;SDS011;6972;51.518;6.918;2023-05-07T11:53:36;1.70;;;1.25;;
13801;SDS011;6972;51.518;6.918;2023-05-07T11:56:11;2.50;;;1.05;;
13801;SDS011;6972;51.518;6.918;2023-05-07T11:58:39;2.03;;;1.20;;
13801;SDS011;6972;51.518;6.918;2023-05-07T12:01:07;1.02;;;0.93;;
13801;SDS011;6972;51.518;6.918;2023-05-07T12:03:34;1.45;;;1.15;;
13801;SDS011;6972;51.518;6.918;2023-05-07T12:06:01;2.20;;;1.08;;
13801;SDS011;6972;51.518;6.918;2023-05-07T12:08:27;1.30;;;1.15;;
13801;SDS011;6972;51.518;6.918;2023-05-07T12:10:54;1.15;;;1.05;;
13801;SDS011;6972;51.518;6.918;2023-05-07T12:13:21;1.10;;;0.90;;
13801;SDS011;6972;51.518;6.918;2023-05-07T12:15:50;1.20;;;1.10;;
13801;SDS011;6972;51.518;6.918;2023-05-07T12:18:20;1.13;;;0.95;;
13801;SDS011;6972;51.518;6.918;2023-05-07T12:20:48;1.25;;;1.00;;
13801;SDS011;6972;51.518;6.918;2023-05-07T12:23:14;1.38;;;1.10;;
13801;SDS011;6972;51.518;6.918;2023-05-07T12:25:41;1.35;;;1.13;;
13801;SDS011;6972;51.518;6.918;2023-05-07T12:28:17;1.25;;;0.90;;
13801;SDS011;6972;51.518;6.918;2023-05-07T12:30:44;1.73;;;1.27;;
13801;SDS011;6972;51.518;6.918;2023-05-07T12:33:15;2.53;;;1.30;;
13801;SDS011;6972;51.518;6.918;2023-05-07T12:35:42;1.58;;;1.30;;
13801;SDS011;6972;51.518;6.918;2023-05-07T12:38:09;1.45;;;1.35;;
13801;SDS011;6972;51.518;6.918;2023-05-07T12:40:37;1.95;;;1.40;;
13801;SDS011;6972;51.518;6.918;2023-05-07T12:43:04;1.83;;;1.02;;
13801;SDS011;6972;51.518;6.918;2023-05-07T12:45:30;2.10;;;1.27;;
13801;SDS011;6972;51.518;6.918;2023-05-07T12:47:57;1.48;;;1.20;;
13801;SDS011;6972;51.518;6.918;2023-05-07T12:50:30;1.17;;;1.05;;
13801;SDS011;6972;51.518;6.918;2023-05-07T12:52:58;3.05;;;1.38;;
13801;SDS011;6972;51.518;6.918;2023-05-07T12:55:27;1.25;;;1.00;;
13801;SDS011;6972;51.518;6.918;2023-05-07T12:57:54;1.35;;;1.10;;
13801;SDS011;6972;51.518;6.918;2023-05-07T13:00:38;0.98;;;0.93;;
13801;SDS011;6972;51.518;6.918;2023-05-07T13:03:04;1.10;;;1.00;;
13801;SDS011;6972;51.518;6.918;2023-05-07T13:05:31;1.50;;;1.25;;
13801;SDS011;6972;51.518;6.918;2023-05-07T13:07:57;1.17;;;1.00;;
13801;SDS011;6972;51.518;6.918;2023-05-07T13:10:23;1.85;;;1.10;;
13801;SDS011;6972;51.518;6.918;2023-05-07T13:12:50;1.15;;;1.05;;
13801;SDS011;6972;51.518;6.918;2023-05-07T13:15:16;1.20;;;1.00;;
13801;SDS011;6972;51.518;6.918;2023-05-07T13:17:43;1.30;;;1.20;;
13801;SDS011;6972;51.518;6.918;2023-05-07T13:20:09;1.60;;;1.10;;
13801;SDS011;6972;51.518;6.918;2023-05-07T13:22:36;1.55;;;1.00;;
13801;SDS011;6972;51.518;6.918;2023-05-07T13:25:02;1.13;;;1.02;;
13801;SDS011;6972;51.518;6.918;2023-05-07T13:27:28;1.50;;;1.10;;
13801;SDS011;6972;51.518;6.918;2023-05-07T13:29:55;2.33;;;1.60;;
13801;SDS011;6972;51.518;6.918;2023-05-07T13:32:22;1.25;;;1.15;;
13801;SDS011;6972;51.518;6.918;2023-05-07T13:34:48;1.60;;;1.50;;
13801;SDS011;6972;51.518;6.918;2023-05-07T13:37:14;2.10;;;1.20;;
13801;SDS011;6972;51.518;6.918;2023-05-07T13:39:41;1.58;;;1.30;;
13801;SDS011;6972;51.518;6.918;2023-05-07T13:42:07;1.17;;;1.08;;
13801;SDS011;6972;51.518;6.918;2023-05-07T13:44:33;1.50;;;1.25;;
13801;SDS011;6972;51.518;6.918;2023-05-07T13:46:59;2.22;;;1.40;;
13801;SDS011;6972;51.518;6.918;2023-05-07T13:49:25;1.40;;;1.20;;
13801;SDS011;6972;51.518;6.918;2023-05-07T13:51:51;1.25;;;1.00;;
13801;SDS011;6972;51.518;6.918;2023-05-07T13:54:17;1.30;;;1.20;;
13801;SDS011;6972;51.518;6.918;2023-05-07T13:56:43;1.20;;;1.10;;
13801;SDS011;6972;51.518;6.918;2023-05-07T13:59:09;1.35;;;1.20;;
13801;SDS011;6972;51.518;6.918;2023-05-07T14:01:35;2.75;;;1.48;;
13801;SDS011;6972;51.518;6.918;2023-05-07T14:04:01;1.48;;;1.38;;
13801;SDS011;6972;51.518;6.918;2023-05-07T14:06:27;2.20;;;1.30;;
13801;SDS011;6972;51.518;6.918;2023-05-07T14:08:53;1.20;;;1.10;;
13801;SDS011;6972;51.518;6.918;2023-05-07T14:11:20;1.38;;;1.23;;
13801;SDS011;6972;51.518;6.918;2023-05-07T14:13:46;1.58;;;1.20;;
13801;SDS011;6972;51.518;6.918;2023-05-07T14:16:13;1.88;;;1.33;;
13801;SDS011;6972;51.518;6.918;2023-05-07T14:18:39;1.23;;;1.13;;
13801;SDS011;6972;51.518;6.918;2023-05-07T14:21:05;3.13;;;1.63;;
13801;SDS011;6972;51.518;6.918;2023-05-07T14:23:31;2.28;;;1.40;;
13801;SDS011;6972;51.518;6.918;2023-05-07T14:25:57;1.95;;;1.20;;
13801;SDS011;6972;51.518;6.918;2023-05-07T14:28:23;1.92;;;1.33;;
13801;SDS011;6972;51.518;6.918;2023-05-07T14:30:52;1.60;;;1.30;;
13801;SDS011;6972;51.518;6.918;2023-05-07T14:33:18;1.40;;;1.30;;
13801;SDS011;6972;51.518;6.918;2023-05-07T14:35:44;1.75;;;1.20;;
13801;SDS011;6972;51.518;6.918;2023-05-07T14:38:13;1.83;;;1.38;;
13801;SDS011;6972;51.518;6.918;2023-05-07T14:40:39;1.30;;;1.20;;
13801;SDS011;6972;51.518;6.918;2023-05-07T14:43:05;1.70;;;1.25;;
13801;SDS011;6972;51.518;6.918;2023-05-07T14:45:31;1.92;;;1.40;;
13801;SDS011;6972;51.518;6.918;2023-05-07T14:47:57;1.30;;;1.20;;
13801;SDS011;6972;51.518;6.918;2023-05-07T14:50:24;1.35;;;1.17;;
13801;SDS011;6972;51.518;6.918;2023-05-07T14:52:50;2.10;;;1.15;;
13801;SDS011;6972;51.518;6.918;2023-05-07T14:55:16;2.28;;;1.30;;
13801;SDS011;6972;51.518;6.918;2023-05-07T14:57:42;1.77;;;1.30;;
13801;SDS011;6972;51.518;6.918;2023-05-07T15:00:08;1.55;;;1.20;;
13801;SDS011;6972;51.518;6.918;2023-05-07T15:02:36;1.50;;;1.40;;
13801;SDS011;6972;51.518;6.918;2023-05-07T15:05:02;1.58;;;1.48;;
13801;SDS011;6972;51.518;6.918;2023-05-07T15:07:28;1.35;;;1.15;;
13801;SDS011;6972;51.518;6.918;2023-05-07T15:09:54;2.65;;;1.25;;
13801;SDS011;6972;51.518;6.918;2023-05-07T15:12:30;2.08;;;1.23;;
13801;SDS011;6972;51.518;6.918;2023-05-07T15:14:56;1.23;;;1.13;;
13801;SDS011;6972;51.518;6.918;2023-05-07T15:17:27;1.30;;;1.20;;
13801;SDS011;6972;51.518;6.918;2023-05-07T15:19:53;2.08;;;1.52;;
13801;SDS011;6972;51.518;6.918;2023-05-07T15:22:20;1.38;;;1.27;;
13801;SDS011;6972;51.518;6.918;2023-05-07T15:24:51;1.50;;;1.33;;